sensor_id;sensor_type;location;lat;lon;timestamp;P1;durP1;ratioP1;P2;durP2;ratioP2
20705;SDS011;10514;49.468;11.044;2023-02-08T00:00:36;15.67;;;7.63;;
20705;SDS011;10514;49.468;11.044;2023-02-08T00:03:02;22.53;;;8.40;;
20705;SDS011;10514;49.468;11.044;2023-02-08T00:05:28;19.73;;;8.27;;
20705;SDS011;10514;49.468;11.044;2023-02-08T00:07:54;13.57;;;7.43;;
20705;SDS011;10514;49.468;11.044;2023-02-08T00:10:20;18.87;;;7.57;;
20705;SDS011;10514;49.468;11.044;2023-02-08T00:12:46;12.90;;;7.37;;
20705;SDS011;10514;49.468;11.044;2023-02-08T00:15:12;11.37;;;7.33;;
20705;SDS011;10514;49.468;11.044;2023-02-08T00:17:39;14.63;;;7.47;;
20705;SDS011;10514;49.468;11.044;2023-02-08T00:20:05;15.50;;;8.17;;
20705;SDS011;10514;49.468;11.044;2023-02-08T00:22:31;18.80;;;8.00;;
20705;SDS011;10514;49.468;11.044;2023-02-08T00:24:57;15.77;;;9.30;;
20705;SDS011;10514;49.468;11.044;2023-02-08T00:27:23;14.13;;;7.57;;
20705;SDS011;10514;49.468;11.044;2023-02-08T00:29:49;14.47;;;8.00;;
20705;SDS011;10514;49.468;11.044;2023-02-08T00:32:14;14.50;;;7.97;;
20705;SDS011;10514;49.468;11.044;2023-02-08T00:34:40;16.13;;;8.13;;
20705;SDS011;10514;49.468;11.044;2023-02-08T00:37:06;12.13;;;7.13;;
20705;SDS011;10514;49.468;11.044;2023-02-08T00:39:32;18.57;;;7.53;;
20705;SDS011;10514;49.468;11.044;2023-02-08T00:41:58;18.60;;;7.63;;
20705;SDS011;10514;49.468;11.044;2023-02-08T00:44:24;12.87;;;7.30;;
20705;SDS011;10514;49.468;11.044;2023-02-08T00:46:50;12.63;;;6.90;;
20705;SDS011;10514;49.468;11.044;2023-02-08T00:49:18;15.70;;;7.83;;
20705;SDS011;10514;49.468;11.044;2023-02-08T00:51:43;13.37;;;6.90;;
20705;SDS011;10514;49.468;11.044;2023-02-08T00:54:13;11.87;;;6.87;;
20705;SDS011;10514;49.468;11.044;2023-02-08T00:56:39;15.13;;;7.03;;
20705;SDS011;10514;49.468;11.044;2023-02-08T00:59:05;14.70;;;7.80;;
20705;SDS011;10514;49.468;11.044;2023-02-08T01:01:31;20.57;;;7.57;;
20705;SDS011;10514;49.468;11.044;2023-02-08T01:03:57;17.80;;;8.87;;
20705;SDS011;10514;49.468;11.044;2023-02-08T01:06:23;20.03;;;8.53;;
20705;SDS011;10514;49.468;11.044;2023-02-08T01:08:49;14.70;;;7.53;;
20705;SDS011;10514;49.468;11.044;2023-02-08T01:11:16;14.73;;;7.00;;
20705;SDS011;10514;49.468;11.044;2023-02-08T01:13:45;22.90;;;9.33;;
20705;SDS011;10514;49.468;11.044;2023-02-08T01:16:16;11.00;;;7.60;;
20705;SDS011;10514;49.468;11.044;2023-02-08T01:18:44;19.83;;;8.57;;
20705;SDS011;10514;49.468;11.044;2023-02-08T01:21:12;14.73;;;6.70;;
20705;SDS011;10514;49.468;11.044;2023-02-08T01:23:39;16.27;;;8.10;;
20705;SDS011;10514;49.468;11.044;2023-02-08T01:26:05;17.43;;;7.97;;
20705;SDS011;10514;49.468;11.044;2023-02-08T01:28:31;16.20;;;7.40;;
20705;SDS011;10514;49.468;11.044;2023-02-08T01:30:57;14.90;;;7.77;;
20705;SDS011;10514;49.468;11.044;2023-02-08T01:33:23;11.50;;;7.03;;
20705;SDS011;10514;49.468;11.044;2023-02-08T01:35:52;15.10;;;8.27;;
20705;SDS011;10514;49.468;11.044;2023-02-08T01:38:20;13.73;;;7.93;;
20705;SDS011;10514;49.468;11.044;2023-02-08T01:40:46;14.57;;;7.87;;
20705;SDS011;10514;49.468;11.044;2023-02-08T01:43:18;13.70;;;7.50;;
20705;SDS011;10514;49.468;11.044;2023-02-08T01:45:45;11.33;;;5.93;;
20705;SDS011;10514;49.468;11.044;2023-02-08T01:48:12;11.87;;;6.93;;
20705;SDS011;10514;49.468;11.044;2023-02-08T01:50:50;14.10;;;8.00;;
20705;SDS011;10514;49.468;11.044;2023-02-08T01:53:17;12.73;;;7.13;;
20705;SDS011;10514;49.468;11.044;2023-02-08T01:55:46;10.50;;;7.30;;
20705;SDS011;10514;49.468;11.044;2023-02-08T01:58:13;15.77;;;7.20;;
20705;SDS011;10514;49.468;11.044;2023-02-08T02:00:39;15.30;;;7.53;;
20705;SDS011;10514;49.468;11.044;2023-02-08T02:03:05;12.37;;;7.50;;
20705;SDS011;10514;49.468;11.044;2023-02-08T02:05:32;13.20;;;7.60;;
20705;SDS011;10514;49.468;11.044;2023-02-08T02:07:59;13.47;;;6.90;;
20705;SDS011;10514;49.468;11.044;2023-02-08T02:10:26;13.60;;;7.07;;
20705;SDS011;10514;49.468;11.044;2023-02-08T02:12:53;15.97;;;7.83;;
20705;SDS011;10514;49.468;11.044;2023-02-08T02:15:20;14.17;;;7.00;;
20705;SDS011;10514;49.468;11.044;2023-02-08T02:17:46;14.43;;;8.33;;
20705;SDS011;10514;49.468;11.044;2023-02-08T02:31:12;15.03;;;7.53;;
20705;SDS011;10514;49.468;11.044;2023-02-08T02:41:39;15.47;;;7.37;;
20705;SDS011;10514;49.468;11.044;2023-02-08T02:44:25;13.03;;;7.50;;
20705;SDS011;10514;49.468;11.044;2023-02-08T02:47:02;14.80;;;7.43;;
20705;SDS011;10514;49.468;11.044;2023-02-08T02:49:35;16.90;;;7.93;;
20705;SDS011;10514;49.468;11.044;2023-02-08T02:52:11;13.90;;;7.03;;
20705;SDS011;10514;49.468;11.044;2023-02-08T02:54:41;15.03;;;6.77;;
20705;SDS011;10514;49.468;11.044;2023-02-08T02:57:15;15.83;;;8.33;;
20705;SDS011;10514;49.468;11.044;2023-02-08T02:59:42;13.53;;;7.00;;
20705;SDS011;10514;49.468;11.044;2023-02-08T03:02:10;15.43;;;7.60;;
20705;SDS011;10514;49.468;11.044;2023-02-08T03:12:05;17.60;;;7.50;;
20705;SDS011;10514;49.468;11.044;2023-02-08T03:14:39;13.83;;;7.40;;
20705;SDS011;10514;49.468;11.044;2023-02-08T03:19:42;14.73;;;8.57;;
20705;SDS011;10514;49.468;11.044;2023-02-08T03:22:13;11.93;;;7.50;;
20705;SDS011;10514;49.468;11.044;2023-02-08T03:24:57;14.80;;;7.63;;
20705;SDS011;10514;49.468;11.044;2023-02-08T03:27:30;13.50;;;6.33;;
20705;SDS011;10514;49.468;11.044;2023-02-08T03:32:37;17.57;;;8.70;;
20705;SDS011;10514;49.468;11.044;2023-02-08T03:35:15;18.57;;;8.40;;
20705;SDS011;10514;49.468;11.044;2023-02-08T03:37:54;15.33;;;7.63;;
20705;SDS011;10514;49.468;11.044;2023-02-08T03:40:24;18.93;;;8.00;;
20705;SDS011;10514;49.468;11.044;2023-02-08T03:42:51;13.37;;;7.67;;
20705;SDS011;10514;49.468;11.044;2023-02-08T03:45:20;13.30;;;7.40;;
20705;SDS011;10514;49.468;11.044;2023-02-08T03:47:47;13.70;;;8.07;;
20705;SDS011;10514;49.468;11.044;2023-02-08T03:50:16;17.70;;;7.47;;
20705;SDS011;10514;49.468;11.044;2023-02-08T03:52:45;12.27;;;7.13;;
20705;SDS011;10514;49.468;11.044;2023-02-08T03:55:13;15.00;;;6.70;;
20705;SDS011;10514;49.468;11.044;2023-02-08T03:57:51;12.47;;;6.60;;
20705;SDS011;10514;49.468;11.044;2023-02-08T04:00:18;16.87;;;8.23;;
20705;SDS011;10514;49.468;11.044;2023-02-08T04:05:20;14.40;;;7.93;;
20705;SDS011;10514;49.468;11.044;2023-02-08T04:07:46;13.13;;;7.27;;
20705;SDS011;10514;49.468;11.044;2023-02-08T04:10:13;19.07;;;7.83;;
20705;SDS011;10514;49.468;11.044;2023-02-08T04:12:39;14.33;;;7.50;;
20705;SDS011;10514;49.468;11.044;2023-02-08T04:15:05;14.50;;;7.67;;
20705;SDS011;10514;49.468;11.044;2023-02-08T04:17:31;16.17;;;7.60;;
20705;SDS011;10514;49.468;11.044;2023-02-08T04:19:57;17.10;;;7.73;;
20705;SDS011;10514;49.468;11.044;2023-02-08T04:22:23;14.73;;;8.03;;
20705;SDS011;10514;49.468;11.044;2023-02-08T04:24:49;14.20;;;8.53;;
20705;SDS011;10514;49.468;11.044;2023-02-08T04:27:14;16.17;;;6.83;;
20705;SDS011;10514;49.468;11.044;2023-02-08T04:29:40;13.33;;;6.40;;
20705;SDS011;10514;49.468;11.044;2023-02-08T04:32:06;15.33;;;6.33;;
20705;SDS011;10514;49.468;11.044;2023-02-08T04:34:37;13.83;;;7.43;;
20705;SDS011;10514;49.468;11.044;2023-02-08T04:37:03;15.37;;;7.70;;
20705;SDS011;10514;49.468;11.044;2023-02-08T04:39:29;15.73;;;7.43;;
20705;SDS011;10514;49.468;11.044;2023-02-08T04:41:55;17.73;;;7.97;;
20705;SDS011;10514;49.468;11.044;2023-02-08T04:44:21;15.13;;;8.10;;
20705;SDS011;10514;49.468;11.044;2023-02-08T04:46:47;14.43;;;7.57;;
20705;SDS011;10514;49.468;11.044;2023-02-08T04:49:13;14.33;;;7.77;;
20705;SDS011;10514;49.468;11.044;2023-02-08T04:51:39;11.60;;;6.47;;
20705;SDS011;10514;49.468;11.044;2023-02-08T04:54:06;12.47;;;7.00;;
20705;SDS011;10514;49.468;11.044;2023-02-08T04:56:32;16.93;;;7.87;;
20705;SDS011;10514;49.468;11.044;2023-02-08T04:58:58;11.17;;;7.03;;
20705;SDS011;10514;49.468;11.044;2023-02-08T05:01:25;16.13;;;8.57;;
20705;SDS011;10514;49.468;11.044;2023-02-08T05:03:51;17.90;;;7.67;;
20705;SDS011;10514;49.468;11.044;2023-02-08T05:06:16;16.00;;;9.73;;
20705;SDS011;10514;49.468;11.044;2023-02-08T05:08:42;11.63;;;7.83;;
20705;SDS011;10514;49.468;11.044;2023-02-08T05:11:08;15.07;;;7.30;;
20705;SDS011;10514;49.468;11.044;2023-02-08T05:13:34;15.47;;;7.87;;
20705;SDS011;10514;49.468;11.044;2023-02-08T05:16:00;16.83;;;8.13;;
20705;SDS011;10514;49.468;11.044;2023-02-08T05:18:26;13.97;;;7.97;;
20705;SDS011;10514;49.468;11.044;2023-02-08T05:20:53;15.23;;;9.00;;
20705;SDS011;10514;49.468;11.044;2023-02-08T05:23:19;13.07;;;7.73;;
20705;SDS011;10514;49.468;11.044;2023-02-08T05:25:45;14.33;;;7.27;;
20705;SDS011;10514;49.468;11.044;2023-02-08T05:28:11;20.53;;;9.10;;
20705;SDS011;10514;49.468;11.044;2023-02-08T05:30:37;18.33;;;9.37;;
20705;SDS011;10514;49.468;11.044;2023-02-08T05:33:03;13.87;;;7.77;;
20705;SDS011;10514;49.468;11.044;2023-02-08T05:35:29;21.30;;;10.07;;
20705;SDS011;10514;49.468;11.044;2023-02-08T05:37:55;23.80;;;9.20;;
20705;SDS011;10514;49.468;11.044;2023-02-08T05:40:21;15.97;;;9.73;;
20705;SDS011;10514;49.468;11.044;2023-02-08T05:42:47;26.73;;;11.83;;
20705;SDS011;10514;49.468;11.044;2023-02-08T05:45:13;25.90;;;11.17;;
20705;SDS011;10514;49.468;11.044;2023-02-08T05:47:39;21.97;;;11.23;;
20705;SDS011;10514;49.468;11.044;2023-02-08T05:50:05;23.43;;;11.20;;
20705;SDS011;10514;49.468;11.044;2023-02-08T05:52:31;18.63;;;10.47;;
20705;SDS011;10514;49.468;11.044;2023-02-08T05:54:57;24.07;;;9.97;;
20705;SDS011;10514;49.468;11.044;2023-02-08T05:57:23;19.83;;;8.23;;
20705;SDS011;10514;49.468;11.044;2023-02-08T05:59:49;17.23;;;9.57;;
20705;SDS011;10514;49.468;11.044;2023-02-08T06:02:15;28.67;;;11.47;;
20705;SDS011;10514;49.468;11.044;2023-02-08T06:04:41;13.37;;;8.77;;
20705;SDS011;10514;49.468;11.044;2023-02-08T06:07:07;19.07;;;9.43;;
20705;SDS011;10514;49.468;11.044;2023-02-08T06:09:33;22.23;;;10.37;;
20705;SDS011;10514;49.468;11.044;2023-02-08T06:11:59;21.70;;;10.77;;
20705;SDS011;10514;49.468;11.044;2023-02-08T06:14:25;27.47;;;11.47;;
20705;SDS011;10514;49.468;11.044;2023-02-08T06:16:51;24.33;;;9.90;;
20705;SDS011;10514;49.468;11.044;2023-02-08T06:19:17;19.07;;;10.43;;
20705;SDS011;10514;49.468;11.044;2023-02-08T06:21:43;19.60;;;10.37;;
20705;SDS011;10514;49.468;11.044;2023-02-08T06:24:09;17.03;;;8.37;;
20705;SDS011;10514;49.468;11.044;2023-02-08T06:26:35;25.37;;;10.50;;
20705;SDS011;10514;49.468;11.044;2023-02-08T06:29:02;23.10;;;9.97;;
20705;SDS011;10514;49.468;11.044;2023-02-08T06:31:28;20.77;;;9.47;;
20705;SDS011;10514;49.468;11.044;2023-02-08T06:33:53;20.07;;;9.77;;
20705;SDS011;10514;49.468;11.044;2023-02-08T06:36:19;31.13;;;11.47;;
20705;SDS011;10514;49.468;11.044;2023-02-08T06:38:45;26.97;;;11.67;;
20705;SDS011;10514;49.468;11.044;2023-02-08T06:41:11;18.87;;;10.73;;
20705;SDS011;10514;49.468;11.044;2023-02-08T06:43:37;17.80;;;8.97;;
20705;SDS011;10514;49.468;11.044;2023-02-08T06:46:04;23.33;;;11.00;;
20705;SDS011;10514;49.468;11.044;2023-02-08T06:48:32;22.83;;;11.53;;
20705;SDS011;10514;49.468;11.044;2023-02-08T06:50:58;25.80;;;11.97;;
20705;SDS011;10514;49.468;11.044;2023-02-08T06:53:24;24.87;;;11.53;;
20705;SDS011;10514;49.468;11.044;2023-02-08T06:55:50;19.50;;;10.63;;
20705;SDS011;10514;49.468;11.044;2023-02-08T06:58:16;25.63;;;10.47;;
20705;SDS011;10514;49.468;11.044;2023-02-08T07:00:43;21.83;;;10.20;;
20705;SDS011;10514;49.468;11.044;2023-02-08T07:03:12;22.67;;;11.70;;
20705;SDS011;10514;49.468;11.044;2023-02-08T07:05:39;21.63;;;11.53;;
20705;SDS011;10514;49.468;11.044;2023-02-08T07:08:05;21.93;;;10.97;;
20705;SDS011;10514;49.468;11.044;2023-02-08T07:10:31;23.30;;;11.57;;
20705;SDS011;10514;49.468;11.044;2023-02-08T07:12:57;18.73;;;10.47;;
20705;SDS011;10514;49.468;11.044;2023-02-08T07:15:23;17.63;;;9.40;;
20705;SDS011;10514;49.468;11.044;2023-02-08T07:17:49;21.97;;;10.83;;
20705;SDS011;10514;49.468;11.044;2023-02-08T07:20:15;21.47;;;11.47;;
20705;SDS011;10514;49.468;11.044;2023-02-08T07:22:41;25.90;;;12.93;;
20705;SDS011;10514;49.468;11.044;2023-02-08T07:25:07;23.93;;;12.10;;
20705;SDS011;10514;49.468;11.044;2023-02-08T07:27:34;18.17;;;10.53;;
20705;SDS011;10514;49.468;11.044;2023-02-08T07:30:00;20.73;;;10.63;;
20705;SDS011;10514;49.468;11.044;2023-02-08T07:32:26;20.87;;;11.03;;
20705;SDS011;10514;49.468;11.044;2023-02-08T07:34:52;19.20;;;9.43;;
20705;SDS011;10514;49.468;11.044;2023-02-08T07:37:18;25.37;;;11.13;;
20705;SDS011;10514;49.468;11.044;2023-02-08T07:39:45;25.43;;;12.63;;
20705;SDS011;10514;49.468;11.044;2023-02-08T07:42:11;25.17;;;11.97;;
20705;SDS011;10514;49.468;11.044;2023-02-08T07:44:37;25.00;;;12.93;;
20705;SDS011;10514;49.468;11.044;2023-02-08T07:47:03;26.60;;;11.97;;
20705;SDS011;10514;49.468;11.044;2023-02-08T07:49:30;26.33;;;12.43;;
20705;SDS011;10514;49.468;11.044;2023-02-08T07:51:56;29.00;;;13.03;;
20705;SDS011;10514;49.468;11.044;2023-02-08T07:54:21;26.03;;;13.87;;
20705;SDS011;10514;49.468;11.044;2023-02-08T07:56:47;25.50;;;13.00;;
20705;SDS011;10514;49.468;11.044;2023-02-08T07:59:13;29.63;;;13.07;;
20705;SDS011;10514;49.468;11.044;2023-02-08T08:01:40;28.90;;;12.83;;
20705;SDS011;10514;49.468;11.044;2023-02-08T08:04:06;26.60;;;13.67;;
20705;SDS011;10514;49.468;11.044;2023-02-08T08:06:32;30.80;;;16.23;;
20705;SDS011;10514;49.468;11.044;2023-02-08T08:08:58;23.83;;;14.13;;
20705;SDS011;10514;49.468;11.044;2023-02-08T08:11:24;24.97;;;13.07;;
20705;SDS011;10514;49.468;11.044;2023-02-08T08:13:50;26.10;;;13.30;;
20705;SDS011;10514;49.468;11.044;2023-02-08T08:16:16;33.87;;;16.83;;
20705;SDS011;10514;49.468;11.044;2023-02-08T08:18:42;37.33;;;18.07;;
20705;SDS011;10514;49.468;11.044;2023-02-08T08:21:08;26.10;;;13.70;;
20705;SDS011;10514;49.468;11.044;2023-02-08T08:23:35;26.27;;;14.10;;
20705;SDS011;10514;49.468;11.044;2023-02-08T08:26:08;28.97;;;14.60;;
20705;SDS011;10514;49.468;11.044;2023-02-08T08:28:39;24.97;;;14.10;;
20705;SDS011;10514;49.468;11.044;2023-02-08T08:31:09;27.53;;;13.83;;
20705;SDS011;10514;49.468;11.044;2023-02-08T08:33:35;25.97;;;14.57;;
20705;SDS011;10514;49.468;11.044;2023-02-08T08:36:01;24.00;;;14.40;;
20705;SDS011;10514;49.468;11.044;2023-02-08T08:38:27;22.63;;;13.77;;
20705;SDS011;10514;49.468;11.044;2023-02-08T08:40:53;23.53;;;12.67;;
20705;SDS011;10514;49.468;11.044;2023-02-08T08:43:19;27.10;;;13.77;;
20705;SDS011;10514;49.468;11.044;2023-02-08T08:45:45;27.60;;;13.23;;
20705;SDS011;10514;49.468;11.044;2023-02-08T08:48:11;25.70;;;12.87;;
20705;SDS011;10514;49.468;11.044;2023-02-08T08:50:37;25.97;;;13.77;;
20705;SDS011;10514;49.468;11.044;2023-02-08T08:53:03;23.77;;;13.77;;
20705;SDS011;10514;49.468;11.044;2023-02-08T08:55:29;27.07;;;13.67;;
20705;SDS011;10514;49.468;11.044;2023-02-08T08:57:55;32.00;;;12.67;;
20705;SDS011;10514;49.468;11.044;2023-02-08T09:00:21;23.37;;;12.17;;
20705;SDS011;10514;49.468;11.044;2023-02-08T09:02:47;26.23;;;12.10;;
20705;SDS011;10514;49.468;11.044;2023-02-08T09:05:13;22.93;;;11.60;;
20705;SDS011;10514;49.468;11.044;2023-02-08T09:07:39;29.60;;;13.87;;
20705;SDS011;10514;49.468;11.044;2023-02-08T09:10:05;22.93;;;13.33;;
20705;SDS011;10514;49.468;11.044;2023-02-08T09:12:31;19.63;;;11.37;;
20705;SDS011;10514;49.468;11.044;2023-02-08T09:14:57;23.30;;;12.80;;
20705;SDS011;10514;49.468;11.044;2023-02-08T09:17:23;25.83;;;12.03;;
20705;SDS011;10514;49.468;11.044;2023-02-08T09:19:49;27.00;;;11.83;;
20705;SDS011;10514;49.468;11.044;2023-02-08T09:22:14;22.67;;;12.77;;
20705;SDS011;10514;49.468;11.044;2023-02-08T09:24:41;23.00;;;12.93;;
20705;SDS011;10514;49.468;11.044;2023-02-08T09:27:07;22.70;;;12.27;;
20705;SDS011;10514;49.468;11.044;2023-02-08T09:29:33;23.23;;;12.27;;
20705;SDS011;10514;49.468;11.044;2023-02-08T09:31:59;23.60;;;12.03;;
20705;SDS011;10514;49.468;11.044;2023-02-08T09:34:26;24.07;;;12.20;;
20705;SDS011;10514;49.468;11.044;2023-02-08T09:36:51;29.23;;;13.80;;
20705;SDS011;10514;49.468;11.044;2023-02-08T09:39:19;36.93;;;15.50;;
20705;SDS011;10514;49.468;11.044;2023-02-08T09:41:55;43.23;;;23.03;;
20705;SDS011;10514;49.468;11.044;2023-02-08T09:47:01;24.43;;;12.20;;
20705;SDS011;10514;49.468;11.044;2023-02-08T09:49:38;25.73;;;13.17;;
20705;SDS011;10514;49.468;11.044;2023-02-08T09:52:07;28.37;;;12.70;;
20705;SDS011;10514;49.468;11.044;2023-02-08T09:54:42;23.43;;;13.13;;
20705;SDS011;10514;49.468;11.044;2023-02-08T09:57:11;21.43;;;12.43;;
20705;SDS011;10514;49.468;11.044;2023-02-08T09:59:39;22.67;;;12.47;;
20705;SDS011;10514;49.468;11.044;2023-02-08T10:02:17;21.13;;;12.17;;
20705;SDS011;10514;49.468;11.044;2023-02-08T10:05:26;21.77;;;12.17;;
20705;SDS011;10514;49.468;11.044;2023-02-08T10:07:43;20.30;;;12.03;;
20705;SDS011;10514;49.468;11.044;2023-02-08T10:10:27;23.03;;;12.43;;
20705;SDS011;10514;49.468;11.044;2023-02-08T10:13:02;21.63;;;11.43;;
20705;SDS011;10514;49.468;11.044;2023-02-08T10:15:43;22.43;;;11.73;;
20705;SDS011;10514;49.468;11.044;2023-02-08T10:20:52;21.67;;;11.53;;
20705;SDS011;10514;49.468;11.044;2023-02-08T10:26:02;28.47;;;12.17;;
20705;SDS011;10514;49.468;11.044;2023-02-08T10:36:01;18.20;;;10.70;;
20705;SDS011;10514;49.468;11.044;2023-02-08T10:38:28;19.27;;;9.90;;
20705;SDS011;10514;49.468;11.044;2023-02-08T10:43:32;17.57;;;9.00;;
20705;SDS011;10514;49.468;11.044;2023-02-08T10:48:33;16.93;;;9.03;;
20705;SDS011;10514;49.468;11.044;2023-02-08T10:51:00;14.73;;;7.97;;
20705;SDS011;10514;49.468;11.044;2023-02-08T10:53:26;18.17;;;9.27;;
20705;SDS011;10514;49.468;11.044;2023-02-08T10:55:52;25.27;;;10.83;;
20705;SDS011;10514;49.468;11.044;2023-02-08T10:58:19;42.47;;;17.00;;
20705;SDS011;10514;49.468;11.044;2023-02-08T11:00:46;29.77;;;11.73;;
20705;SDS011;10514;49.468;11.044;2023-02-08T11:03:14;22.70;;;10.77;;
20705;SDS011;10514;49.468;11.044;2023-02-08T11:05:41;19.50;;;9.47;;
20705;SDS011;10514;49.468;11.044;2023-02-08T11:10:33;19.97;;;9.23;;
20705;SDS011;10514;49.468;11.044;2023-02-08T11:13:00;17.50;;;7.73;;
20705;SDS011;10514;49.468;11.044;2023-02-08T11:18:19;14.87;;;8.50;;
20705;SDS011;10514;49.468;11.044;2023-02-08T11:20:48;18.17;;;8.83;;
20705;SDS011;10514;49.468;11.044;2023-02-08T11:23:28;16.97;;;8.70;;
20705;SDS011;10514;49.468;11.044;2023-02-08T11:26:39;20.20;;;8.37;;
20705;SDS011;10514;49.468;11.044;2023-02-08T11:31:23;19.70;;;9.27;;
20705;SDS011;10514;49.468;11.044;2023-02-08T11:36:28;13.90;;;8.77;;
20705;SDS011;10514;49.468;11.044;2023-02-08T11:38:56;14.60;;;7.73;;
20705;SDS011;10514;49.468;11.044;2023-02-08T11:41:22;19.13;;;9.17;;
20705;SDS011;10514;49.468;11.044;2023-02-08T11:44:11;23.23;;;9.17;;
20705;SDS011;10514;49.468;11.044;2023-02-08T11:46:37;16.50;;;8.60;;
20705;SDS011;10514;49.468;11.044;2023-02-08T11:49:05;15.20;;;8.23;;
20705;SDS011;10514;49.468;11.044;2023-02-08T11:51:35;14.93;;;8.40;;
20705;SDS011;10514;49.468;11.044;2023-02-08T11:54:02;11.90;;;6.77;;
20705;SDS011;10514;49.468;11.044;2023-02-08T11:56:30;17.97;;;8.13;;
20705;SDS011;10514;49.468;11.044;2023-02-08T11:59:00;17.23;;;9.80;;
20705;SDS011;10514;49.468;11.044;2023-02-08T12:01:31;22.03;;;9.40;;
20705;SDS011;10514;49.468;11.044;2023-02-08T12:04:02;17.87;;;9.20;;
20705;SDS011;10514;49.468;11.044;2023-02-08T12:17:15;16.00;;;8.30;;
20705;SDS011;10514;49.468;11.044;2023-02-08T12:22:32;19.87;;;8.47;;
20705;SDS011;10514;49.468;11.044;2023-02-08T12:25:08;17.30;;;7.83;;
20705;SDS011;10514;49.468;11.044;2023-02-08T12:31:05;19.13;;;8.43;;
20705;SDS011;10514;49.468;11.044;2023-02-08T12:36:26;16.83;;;8.40;;
20705;SDS011;10514;49.468;11.044;2023-02-08T12:42:27;15.77;;;8.17;;
20705;SDS011;10514;49.468;11.044;2023-02-08T12:52:52;14.20;;;8.13;;
20705;SDS011;10514;49.468;11.044;2023-02-08T12:55:25;19.80;;;9.13;;
20705;SDS011;10514;49.468;11.044;2023-02-08T12:57:55;40.50;;;18.40;;
20705;SDS011;10514;49.468;11.044;2023-02-08T13:00:33;26.27;;;13.93;;
20705;SDS011;10514;49.468;11.044;2023-02-08T13:05:32;19.77;;;10.90;;
20705;SDS011;10514;49.468;11.044;2023-02-08T13:08:07;16.17;;;10.40;;
20705;SDS011;10514;49.468;11.044;2023-02-08T13:10:40;17.50;;;8.67;;
20705;SDS011;10514;49.468;11.044;2023-02-08T13:13:17;17.87;;;8.83;;
20705;SDS011;10514;49.468;11.044;2023-02-08T13:15:50;19.90;;;10.43;;
20705;SDS011;10514;49.468;11.044;2023-02-08T13:18:24;19.50;;;9.67;;
20705;SDS011;10514;49.468;11.044;2023-02-08T13:20:57;16.87;;;8.60;;
20705;SDS011;10514;49.468;11.044;2023-02-08T13:23:28;19.27;;;9.80;;
20705;SDS011;10514;49.468;11.044;2023-02-08T13:26:15;21.80;;;9.13;;
20705;SDS011;10514;49.468;11.044;2023-02-08T13:28:55;18.30;;;9.80;;
20705;SDS011;10514;49.468;11.044;2023-02-08T13:33:51;18.60;;;9.20;;
20705;SDS011;10514;49.468;11.044;2023-02-08T13:38:50;17.37;;;8.40;;
20705;SDS011;10514;49.468;11.044;2023-02-08T13:41:18;14.27;;;7.97;;
20705;SDS011;10514;49.468;11.044;2023-02-08T13:44:00;15.30;;;7.77;;
20705;SDS011;10514;49.468;11.044;2023-02-08T13:46:33;12.20;;;7.20;;
20705;SDS011;10514;49.468;11.044;2023-02-08T13:49:11;13.07;;;7.57;;
20705;SDS011;10514;49.468;11.044;2023-02-08T13:51:54;17.73;;;8.37;;
20705;SDS011;10514;49.468;11.044;2023-02-08T13:54:23;19.07;;;8.83;;
20705;SDS011;10514;49.468;11.044;2023-02-08T13:56:50;18.47;;;9.07;;
20705;SDS011;10514;49.468;11.044;2023-02-08T13:59:27;18.37;;;9.07;;
20705;SDS011;10514;49.468;11.044;2023-02-08T14:04:41;17.00;;;9.37;;
20705;SDS011;10514;49.468;11.044;2023-02-08T14:07:26;14.13;;;8.00;;
20705;SDS011;10514;49.468;11.044;2023-02-08T14:17:33;18.37;;;8.57;;
20705;SDS011;10514;49.468;11.044;2023-02-08T14:20:01;15.20;;;9.17;;
20705;SDS011;10514;49.468;11.044;2023-02-08T14:22:31;22.07;;;9.87;;
20705;SDS011;10514;49.468;11.044;2023-02-08T14:25:15;18.17;;;9.37;;
20705;SDS011;10514;49.468;11.044;2023-02-08T14:27:49;16.73;;;9.53;;
20705;SDS011;10514;49.468;11.044;2023-02-08T14:37:42;21.70;;;10.13;;
20705;SDS011;10514;49.468;11.044;2023-02-08T14:45:33;21.47;;;10.07;;
20705;SDS011;10514;49.468;11.044;2023-02-08T14:48:34;17.77;;;9.27;;
20705;SDS011;10514;49.468;11.044;2023-02-08T14:50:54;20.10;;;9.43;;
20705;SDS011;10514;49.468;11.044;2023-02-08T14:56:04;18.83;;;10.03;;
20705;SDS011;10514;49.468;11.044;2023-02-08T14:58:32;22.10;;;10.07;;
20705;SDS011;10514;49.468;11.044;2023-02-08T15:01:00;19.97;;;9.43;;
20705;SDS011;10514;49.468;11.044;2023-02-08T15:03:28;25.70;;;10.57;;
20705;SDS011;10514;49.468;11.044;2023-02-08T15:08:39;17.67;;;10.07;;
20705;SDS011;10514;49.468;11.044;2023-02-08T15:11:15;22.37;;;10.27;;
20705;SDS011;10514;49.468;11.044;2023-02-08T15:13:47;25.60;;;9.83;;
20705;SDS011;10514;49.468;11.044;2023-02-08T15:16:16;21.67;;;12.03;;
20705;SDS011;10514;49.468;11.044;2023-02-08T15:18:46;20.80;;;11.20;;
20705;SDS011;10514;49.468;11.044;2023-02-08T15:21:15;19.03;;;10.23;;
20705;SDS011;10514;49.468;11.044;2023-02-08T15:23:41;21.87;;;11.50;;
20705;SDS011;10514;49.468;11.044;2023-02-08T15:26:20;24.60;;;10.83;;
20705;SDS011;10514;49.468;11.044;2023-02-08T15:28:46;19.23;;;10.40;;
20705;SDS011;10514;49.468;11.044;2023-02-08T15:31:16;15.90;;;9.07;;
20705;SDS011;10514;49.468;11.044;2023-02-08T15:33:43;20.30;;;10.03;;
20705;SDS011;10514;49.468;11.044;2023-02-08T15:36:44;17.87;;;10.90;;
20705;SDS011;10514;49.468;11.044;2023-02-08T15:39:09;19.60;;;10.63;;
20705;SDS011;10514;49.468;11.044;2023-02-08T15:41:35;23.83;;;10.80;;
20705;SDS011;10514;49.468;11.044;2023-02-08T15:44:19;17.73;;;9.33;;
20705;SDS011;10514;49.468;11.044;2023-02-08T15:46:46;17.60;;;8.57;;
20705;SDS011;10514;49.468;11.044;2023-02-08T15:49:23;17.40;;;9.53;;
20705;SDS011;10514;49.468;11.044;2023-02-08T15:52:03;16.27;;;9.13;;
20705;SDS011;10514;49.468;11.044;2023-02-08T15:54:29;16.73;;;8.77;;
20705;SDS011;10514;49.468;11.044;2023-02-08T15:57:03;18.23;;;8.77;;
20705;SDS011;10514;49.468;11.044;2023-02-08T15:59:33;19.23;;;8.27;;
20705;SDS011;10514;49.468;11.044;2023-02-08T16:02:10;19.37;;;9.70;;
20705;SDS011;10514;49.468;11.044;2023-02-08T16:04:44;22.60;;;11.23;;
20705;SDS011;10514;49.468;11.044;2023-02-08T16:07:24;17.60;;;8.73;;
20705;SDS011;10514;49.468;11.044;2023-02-08T16:09:52;15.43;;;9.57;;
20705;SDS011;10514;49.468;11.044;2023-02-08T16:12:19;23.73;;;11.40;;
20705;SDS011;10514;49.468;11.044;2023-02-08T16:14:45;20.47;;;10.67;;
20705;SDS011;10514;49.468;11.044;2023-02-08T16:17:30;22.80;;;11.27;;
20705;SDS011;10514;49.468;11.044;2023-02-08T16:19:57;39.57;;;17.77;;
20705;SDS011;10514;49.468;11.044;2023-02-08T16:22:24;24.33;;;13.00;;
20705;SDS011;10514;49.468;11.044;2023-02-08T16:24:50;14.40;;;8.83;;
20705;SDS011;10514;49.468;11.044;2023-02-08T16:29:42;16.67;;;8.07;;
20705;SDS011;10514;49.468;11.044;2023-02-08T16:32:18;16.43;;;9.37;;
20705;SDS011;10514;49.468;11.044;2023-02-08T16:34:46;54.67;;;24.77;;
20705;SDS011;10514;49.468;11.044;2023-02-08T16:42:20;20.33;;;8.70;;
20705;SDS011;10514;49.468;11.044;2023-02-08T16:44:56;19.47;;;9.67;;